Terminal Aerodrome Forecast
Issued by NWS Paducah, KY

Home | Current Version | Previous Version | Text Only | Print | Product List | Glossary On
Versions: 1 2 3 4 5 6 7 8 9 10 11 12 13 14 15 16 17 18 19
000
FTUS43 KPAH 231100
TAFEVV
TAF
KEVV 231120Z 2312/2412 VRB02KT P6SM SCT080
     FM232000 VRB03KT P6SM VCTS SCT040CB
     FM240000 VRB03KT P6SM SCT250
     FM240800 00000KT 4SM BR SCT250=

USA.gov is the U.S. government's official web portal to all federal, state and local government web resources and services.